createdAt,value
2023-04-14T00:00:27.069Z,51.06
2023-04-14T00:08:49.444Z,50.81
2023-04-14T00:11:24.589Z,50.98
2023-04-14T00:13:52.787Z,51.16
2023-04-14T00:16:22.045Z,51.01
2023-04-14T00:18:50.278Z,51.60
2023-04-14T00:21:18.724Z,51.44
2023-04-14T00:23:48.521Z,51.55
2023-04-14T00:26:30.336Z,51.62
2023-04-14T00:29:18.307Z,51.71
2023-04-14T00:32:05.593Z,51.44
2023-04-14T00:34:44.148Z,51.61
2023-04-14T00:37:14.505Z,51.17
2023-04-14T00:40:16.274Z,51.00
2023-04-14T00:42:46.804Z,51.21
2023-04-14T00:45:17.149Z,50.90
2023-04-14T00:47:49.625Z,51.42
2023-04-14T00:53:15.775Z,51.11
2023-04-14T00:55:56.960Z,51.47
2023-04-14T00:58:28.080Z,51.01
2023-04-14T01:00:57.676Z,51.33
2023-04-14T01:03:28.298Z,51.12
2023-04-14T01:06:01.477Z,51.25
2023-04-14T01:08:32.447Z,51.30
2023-04-14T01:14:35.493Z,51.05
2023-04-14T01:20:19.091Z,51.30
2023-04-14T01:22:51.724Z,51.44
2023-04-14T01:25:51.141Z,51.68
2023-04-14T01:28:41.312Z,51.58
2023-04-14T01:31:30.192Z,51.34
2023-04-14T01:34:04.709Z,50.99
2023-04-14T01:36:41.566Z,51.34
2023-04-14T01:39:14.404Z,51.39
2023-04-14T01:41:47.524Z,51.46
2023-04-14T01:44:18.299Z,51.55
2023-04-14T01:46:48.526Z,51.53
2023-04-14T01:49:19.723Z,51.53
2023-04-14T01:51:49.977Z,51.42
2023-04-14T01:54:20.688Z,51.58
2023-04-14T01:56:52.235Z,51.53
2023-04-14T01:59:22.175Z,51.35
2023-04-14T02:01:53.828Z,51.71
2023-04-14T02:04:27.306Z,51.15
2023-04-14T02:06:58.766Z,51.57
2023-04-14T02:09:31.340Z,51.64
2023-04-14T02:12:01.323Z,51.79
2023-04-14T02:14:33.519Z,51.84
2023-04-14T02:17:07.534Z,51.72
2023-04-14T02:19:37.653Z,51.52
2023-04-14T02:22:06.427Z,51.74
2023-04-14T02:24:37.373Z,51.77
2023-04-14T02:27:11.177Z,51.70
2023-04-14T02:29:43.595Z,51.59
2023-04-14T02:32:21.353Z,52.09
2023-04-14T02:35:03.707Z,51.83
2023-04-14T02:37:37.355Z,51.49
2023-04-14T02:40:14.497Z,51.68
2023-04-14T02:42:46.508Z,51.91
2023-04-14T02:45:20.588Z,51.59
2023-04-14T02:47:58.268Z,52.01
2023-04-14T02:50:28.153Z,51.66
2023-04-14T02:52:58.350Z,51.77
2023-04-14T02:55:27.708Z,51.87
2023-04-14T02:57:56.864Z,51.95
2023-04-14T03:00:25.447Z,51.77
2023-04-14T03:02:56.783Z,52.26
2023-04-14T03:05:26.403Z,51.89
2023-04-14T03:07:56.741Z,51.87
2023-04-14T03:10:26.592Z,51.81
2023-04-14T03:12:56.264Z,51.83
2023-04-14T03:15:26.103Z,51.67
2023-04-14T03:17:58.215Z,51.63
2023-04-14T03:20:28.392Z,51.86
2023-04-14T03:23:01.915Z,51.71
2023-04-14T03:25:32.238Z,51.74
2023-04-14T03:28:03.413Z,51.63
2023-04-14T03:30:33.638Z,51.59
2023-04-14T03:33:07.518Z,51.81
2023-04-14T03:35:37.613Z,51.88
2023-04-14T03:38:09.384Z,51.68
2023-04-14T03:40:41.401Z,51.65
2023-04-14T03:43:12.859Z,51.43
2023-04-14T03:45:41.651Z,51.53
2023-04-14T03:48:14.469Z,51.41
2023-04-14T03:50:45.857Z,51.54
2023-04-14T03:53:18.753Z,52.03
2023-04-14T03:56:04.451Z,51.58
2023-04-14T03:58:34.532Z,51.54
2023-04-14T04:01:04.963Z,51.48
2023-04-14T04:03:51.539Z,51.29
2023-04-14T04:06:22.323Z,51.70
2023-04-14T04:11:47.785Z,51.52
2023-04-14T04:14:28.792Z,51.64
2023-04-14T04:20:13.396Z,51.44
2023-04-14T04:31:33.715Z,51.79
2023-04-14T04:34:04.254Z,51.29
2023-04-14T04:36:49.347Z,51.64
2023-04-14T04:39:18.973Z,51.51
2023-04-14T04:41:52.358Z,51.51
2023-04-14T04:44:21.079Z,51.58
2023-04-14T04:47:12.188Z,51.48
2023-04-14T04:49:43.961Z,51.58
2023-04-14T04:52:15.648Z,51.69
2023-04-14T04:57:28.442Z,51.69
2023-04-14T04:59:57.395Z,51.75
2023-04-14T05:05:10.476Z,51.91
2023-04-14T05:07:56.190Z,51.67
2023-04-14T05:10:25.290Z,51.41
2023-04-14T05:12:53.457Z,51.86
2023-04-14T05:15:30.584Z,51.59
2023-04-14T05:18:03.309Z,52.00
2023-04-14T05:20:57.729Z,51.60
2023-04-14T05:23:31.040Z,51.69
2023-04-14T05:26:14.650Z,51.94
2023-04-14T05:28:53.610Z,51.85
2023-04-14T05:31:32.580Z,51.78
2023-04-14T05:34:06.361Z,51.81
2023-04-14T05:36:37.509Z,51.96
2023-04-14T05:39:09.100Z,51.87
2023-04-14T05:41:38.519Z,51.65
2023-04-14T05:44:07.757Z,52.21
2023-04-14T05:46:38.605Z,52.02
2023-04-14T05:49:07.097Z,52.25
2023-04-14T05:51:36.789Z,51.96
2023-04-14T05:54:08.267Z,52.17
2023-04-14T05:56:55.553Z,52.09
2023-04-14T05:59:29.562Z,52.27
2023-04-14T06:02:13.365Z,52.02
2023-04-14T06:10:58.512Z,52.46
2023-04-14T06:13:46.518Z,52.51
2023-04-14T06:21:58.072Z,52.75
2023-04-14T06:24:29.215Z,52.31
2023-04-14T06:37:07.048Z,52.93
2023-04-14T06:48:52.687Z,52.86
2023-04-14T06:54:59.209Z,53.03
2023-04-14T06:57:46.186Z,52.88
2023-04-14T07:06:04.938Z,53.18
2023-04-14T07:08:35.353Z,53.15
2023-04-14T07:11:20.281Z,53.33
2023-04-14T07:14:15.759Z,53.05
2023-04-14T07:19:28.349Z,53.05
2023-04-14T07:25:44.226Z,53.16
2023-04-14T07:33:49.258Z,53.08
2023-04-14T07:36:18.117Z,53.41
2023-04-14T07:38:47.630Z,53.54
2023-04-14T07:41:16.529Z,53.15
2023-04-14T07:43:46.801Z,53.45
2023-04-14T07:49:22.639Z,53.28
2023-04-14T07:51:51.414Z,53.29
2023-04-14T07:54:19.759Z,53.59
2023-04-14T07:56:49.039Z,53.59
2023-04-14T07:59:17.293Z,53.36
2023-04-14T08:01:48.204Z,53.64
2023-04-14T08:04:17.511Z,53.66
2023-04-14T08:06:46.491Z,53.72
2023-04-14T08:09:15.018Z,53.55
2023-04-14T08:11:43.145Z,53.53
2023-04-14T08:14:11.838Z,53.88
2023-04-14T08:16:40.138Z,53.74
2023-04-14T08:19:09.670Z,53.94
2023-04-14T08:21:38.584Z,53.96
2023-04-14T08:24:07.382Z,53.48
2023-04-14T08:26:46.841Z,53.77
2023-04-14T08:29:16.241Z,53.61
2023-04-14T08:31:44.395Z,53.69
2023-04-14T08:34:15.557Z,53.74
2023-04-14T08:36:51.853Z,53.82
2023-04-14T08:39:21.649Z,53.94
2023-04-14T08:41:52.942Z,53.60
2023-04-14T08:44:22.014Z,53.71
2023-04-14T08:46:54.438Z,53.71
2023-04-14T08:49:33.552Z,53.56
2023-04-14T08:52:04.271Z,53.24
2023-04-14T08:54:34.652Z,52.99
2023-04-14T08:57:04.965Z,52.93
2023-04-14T08:59:34.481Z,52.71
2023-04-14T09:02:05.749Z,52.67
2023-04-14T09:04:37.515Z,52.61
2023-04-14T09:07:07.455Z,52.48
2023-04-14T09:09:37.220Z,52.78
2023-04-14T09:12:05.892Z,52.42
2023-04-14T09:14:35.361Z,52.49
2023-04-14T09:17:18.880Z,52.18
2023-04-14T09:20:37.780Z,52.21
2023-04-14T09:22:39.199Z,51.88
2023-04-14T09:25:09.522Z,51.80
2023-04-14T09:27:37.906Z,51.88
2023-04-14T09:30:10.525Z,51.09
2023-04-14T09:32:39.950Z,51.40
2023-04-14T09:35:14.037Z,51.30
2023-04-14T09:37:46.632Z,50.93
2023-04-14T09:40:30.433Z,50.58
2023-04-14T09:42:59.408Z,50.11
2023-04-14T09:45:47.290Z,50.13
2023-04-14T09:48:20.213Z,50.02
2023-04-14T09:51:00.490Z,49.80
2023-04-14T09:53:30.569Z,49.61
2023-04-14T09:56:00.243Z,49.64
2023-04-14T09:58:31.813Z,49.77
2023-04-14T10:01:01.040Z,49.63
2023-04-14T10:03:37.530Z,49.67
2023-04-14T10:06:20.361Z,49.78
2023-04-14T10:08:51.804Z,49.58
2023-04-14T10:11:21.765Z,49.72
2023-04-14T10:13:51.714Z,49.71
2023-04-14T10:16:20.152Z,49.69
2023-04-14T10:18:49.708Z,49.95
2023-04-14T10:21:22.450Z,49.93
2023-04-14T10:23:51.247Z,50.01
2023-04-14T10:26:21.163Z,50.02
2023-04-14T10:28:52.162Z,50.02
2023-04-14T10:31:23.481Z,50.30
2023-04-14T10:33:55.844Z,50.16
2023-04-14T10:36:30.867Z,50.08
2023-04-14T10:39:02.489Z,50.12
2023-04-14T10:41:46.058Z,49.52
2023-04-14T10:44:25.516Z,49.46
2023-04-14T10:46:54.575Z,48.95
2023-04-14T10:49:26.795Z,48.83
2023-04-14T10:51:56.141Z,48.27
2023-04-14T10:54:24.384Z,47.71
2023-04-14T10:57:12.629Z,47.07
2023-04-14T10:59:43.502Z,47.03
2023-04-14T11:02:25.671Z,46.79
2023-04-14T11:05:05.372Z,47.00
2023-04-14T11:07:40.583Z,46.67
2023-04-14T11:10:38.629Z,46.24
2023-04-14T11:13:09.319Z,45.49
2023-04-14T11:15:48.650Z,44.47
2023-04-14T11:18:18.089Z,44.50
2023-04-14T11:20:46.856Z,44.39
2023-04-14T11:23:17.827Z,44.36
2023-04-14T11:25:46.548Z,44.17
2023-04-14T11:28:14.740Z,43.80
2023-04-14T11:30:44.239Z,43.86
2023-04-14T11:33:13.071Z,43.20
2023-04-14T11:35:43.680Z,42.63
2023-04-14T11:38:12.581Z,42.69
2023-04-14T11:40:42.459Z,42.01
2023-04-14T11:43:10.608Z,41.63
2023-04-14T11:45:44.208Z,41.69
2023-04-14T11:48:13.286Z,41.46
2023-04-14T11:50:42.864Z,41.26
2023-04-14T11:53:13.263Z,41.06
2023-04-14T11:55:45.780Z,40.99
2023-04-14T11:58:26.825Z,40.97
2023-04-14T12:00:57.699Z,40.74
2023-04-14T12:03:29.106Z,40.65
2023-04-14T12:05:58.518Z,40.47
2023-04-14T12:08:27.128Z,40.24
2023-04-14T12:10:57.868Z,39.97
2023-04-14T12:13:34.222Z,40.07
2023-04-14T12:16:02.487Z,40.22
2023-04-14T12:18:31.150Z,40.58
2023-04-14T12:21:09.712Z,40.55
2023-04-14T12:23:41.628Z,40.68
2023-04-14T12:26:13.950Z,40.82
2023-04-14T12:28:43.034Z,41.17
2023-04-14T12:31:13.793Z,40.73
2023-04-14T12:33:43.563Z,40.63
2023-04-14T12:36:16.138Z,40.19
2023-04-14T12:38:49.354Z,40.01
2023-04-14T12:41:29.368Z,40.24
2023-04-14T12:43:58.309Z,40.00
2023-04-14T12:46:27.358Z,39.96
2023-04-14T12:48:55.867Z,40.01
2023-04-14T12:51:24.495Z,39.73
2023-04-14T12:53:53.744Z,39.76
2023-04-14T12:56:23.770Z,40.12
2023-04-14T12:58:53.123Z,40.00
2023-04-14T13:01:22.132Z,39.76
2023-04-14T13:03:52.767Z,39.97
2023-04-14T13:06:23.060Z,40.32
2023-04-14T13:08:53.925Z,40.85
2023-04-14T13:11:23.495Z,40.85
2023-04-14T13:13:53.595Z,41.32
2023-04-14T13:16:22.284Z,41.58
2023-04-14T13:18:50.731Z,41.89
2023-04-14T13:21:18.975Z,41.86
2023-04-14T13:23:46.966Z,41.75
2023-04-14T13:26:15.046Z,41.74
2023-04-14T13:28:43.029Z,41.87
2023-04-14T13:31:16.861Z,42.25
2023-04-14T13:33:45.544Z,41.67
2023-04-14T13:36:13.545Z,41.21
2023-04-14T13:38:42.602Z,42.60
2023-04-14T13:41:11.547Z,42.63
2023-04-14T13:43:39.632Z,42.72
2023-04-14T13:46:07.739Z,41.76
2023-04-14T13:48:37.596Z,40.37
2023-04-14T13:51:06.935Z,40.46
2023-04-14T13:53:35.779Z,39.58
2023-04-14T13:56:03.920Z,39.22
2023-04-14T13:58:32.335Z,38.99
2023-04-14T14:01:01.053Z,39.13
2023-04-14T14:03:31.536Z,39.50
2023-04-14T14:06:01.876Z,40.12
2023-04-14T14:08:30.624Z,40.40
2023-04-14T14:10:59.074Z,40.85
2023-04-14T14:13:27.400Z,40.52
2023-04-14T14:15:55.479Z,40.68
2023-04-14T14:18:23.990Z,41.30
2023-04-14T14:20:53.691Z,41.81
2023-04-14T14:23:23.831Z,42.71
2023-04-14T14:25:53.776Z,43.60
2023-04-14T14:28:23.091Z,44.50
2023-04-14T14:30:52.812Z,45.30
2023-04-14T14:33:21.579Z,46.27
2023-04-14T14:35:52.402Z,46.89
2023-04-14T14:38:20.540Z,47.40
2023-04-14T14:40:49.928Z,48.07
2023-04-14T14:43:21.646Z,48.59
2023-04-14T14:45:50.347Z,48.95
2023-04-14T14:48:18.405Z,49.30
2023-04-14T14:50:46.466Z,49.33
2023-04-14T14:53:14.535Z,49.52
2023-04-14T14:55:42.500Z,49.50
2023-04-14T14:58:17.767Z,49.94
2023-04-14T15:00:46.866Z,49.94
2023-04-14T15:03:17.652Z,50.13
2023-04-14T15:05:47.300Z,50.50
2023-04-14T15:08:15.353Z,51.12
2023-04-14T15:10:45.790Z,50.93
2023-04-14T15:13:24.130Z,51.14
2023-04-14T15:15:53.162Z,50.75
2023-04-14T15:18:22.737Z,50.97
2023-04-14T15:20:53.178Z,51.10
2023-04-14T15:23:24.316Z,51.58
2023-04-14T15:25:52.231Z,51.02
2023-04-14T15:28:32.110Z,50.99
2023-04-14T15:31:01.588Z,50.65
2023-04-14T15:33:30.727Z,50.11
2023-04-14T15:35:58.677Z,49.91
2023-04-14T15:38:27.194Z,49.56
2023-04-14T15:40:58.622Z,49.27
2023-04-14T15:43:29.863Z,48.93
2023-04-14T15:45:57.886Z,48.83
2023-04-14T15:48:26.010Z,48.62
2023-04-14T15:50:54.689Z,49.18
2023-04-14T15:53:22.971Z,49.04
2023-04-14T15:55:53.097Z,49.19
2023-04-14T15:58:21.567Z,51.00
2023-04-14T16:00:51.149Z,51.48
2023-04-14T16:03:20.294Z,49.13
2023-04-14T16:05:48.675Z,46.83
2023-04-14T16:08:16.959Z,45.46
2023-04-14T16:10:45.187Z,43.94
2023-04-14T16:13:14.842Z,42.69
2023-04-14T16:15:42.894Z,41.08
2023-04-14T16:18:14.515Z,39.75
2023-04-14T16:20:42.750Z,38.79
2023-04-14T16:23:11.278Z,38.34
2023-04-14T16:25:39.997Z,38.71
2023-04-14T16:28:08.153Z,39.73
2023-04-14T16:30:37.251Z,40.11
2023-04-14T16:33:05.779Z,41.25
2023-04-14T16:35:35.562Z,42.92
2023-04-14T16:38:08.353Z,44.75
2023-04-14T16:40:37.374Z,44.55
2023-04-14T16:43:06.088Z,42.75
2023-04-14T16:45:34.827Z,41.72
2023-04-14T16:48:03.157Z,38.84
2023-04-14T16:50:36.104Z,36.15
2023-04-14T16:53:05.897Z,35.82
2023-04-14T16:55:36.022Z,34.74
2023-04-14T16:58:04.005Z,34.72
2023-04-14T17:00:32.409Z,34.79
2023-04-14T17:03:00.549Z,34.65
2023-04-14T17:05:29.459Z,33.99
2023-04-14T17:07:57.876Z,33.52
2023-04-14T17:10:29.867Z,33.02
2023-04-14T17:12:58.723Z,33.59
2023-04-14T17:15:27.871Z,33.67
2023-04-14T17:17:56.251Z,32.88
2023-04-14T17:20:26.126Z,31.68
2023-04-14T17:23:04.919Z,30.78
2023-04-14T17:25:37.828Z,31.11
2023-04-14T17:28:06.436Z,31.61
2023-04-14T17:30:35.525Z,31.74
2023-04-14T17:33:05.013Z,32.06
2023-04-14T17:35:35.379Z,31.69
2023-04-14T17:38:04.261Z,31.19
2023-04-14T17:40:46.093Z,31.23
2023-04-14T17:43:15.689Z,31.13
2023-04-14T17:45:46.205Z,31.74
2023-04-14T17:48:14.923Z,31.93
2023-04-14T17:50:43.167Z,31.85
2023-04-14T17:53:12.532Z,32.18
2023-04-14T17:55:43.129Z,32.18
2023-04-14T17:58:11.780Z,31.89
2023-04-14T18:00:40.093Z,32.11
2023-04-14T18:03:08.742Z,32.71
2023-04-14T18:05:37.580Z,32.80
2023-04-14T18:08:06.373Z,33.54
2023-04-14T18:10:35.011Z,33.83
2023-04-14T18:13:04.444Z,34.00
2023-04-14T18:15:32.470Z,33.29
2023-04-14T18:18:00.496Z,33.33
2023-04-14T18:20:42.397Z,33.21
2023-04-14T18:23:10.455Z,32.89
2023-04-14T18:28:11.536Z,32.89
2023-04-14T18:30:39.592Z,33.49
2023-04-14T18:33:09.005Z,33.68
2023-04-14T18:35:36.952Z,33.96
2023-04-14T18:38:04.842Z,33.65
2023-04-14T18:40:32.946Z,33.94
2023-04-14T18:43:01.595Z,34.46
2023-04-14T18:45:31.320Z,34.49
2023-04-14T18:47:59.885Z,34.93
2023-04-14T18:50:28.458Z,35.04
2023-04-14T18:52:56.749Z,35.51
2023-04-14T18:55:25.309Z,36.02
2023-04-14T18:57:53.492Z,36.62
2023-04-14T19:00:21.772Z,37.25
2023-04-14T19:02:51.312Z,38.07
2023-04-14T19:05:19.364Z,38.62
2023-04-14T19:07:48.893Z,39.21
2023-04-14T19:10:16.977Z,40.16
2023-04-14T19:12:44.958Z,40.73
2023-04-14T19:15:14.375Z,41.21
2023-04-14T19:17:42.613Z,41.79
2023-04-14T19:20:13.214Z,42.32
2023-04-14T19:22:41.369Z,43.07
2023-04-14T19:25:10.967Z,42.71
2023-04-14T19:27:42.385Z,43.23
2023-04-14T19:30:12.405Z,43.37
2023-04-14T19:32:41.169Z,43.62
2023-04-14T19:35:12.079Z,43.96
2023-04-14T19:37:40.678Z,44.14
2023-04-14T19:40:11.018Z,44.32
2023-04-14T19:42:39.081Z,44.59
2023-04-14T19:45:08.583Z,44.31
2023-04-14T19:47:36.753Z,44.46
2023-04-14T19:50:05.227Z,44.42
2023-04-14T19:52:35.178Z,44.37
2023-04-14T19:55:03.269Z,44.37
2023-04-14T19:57:34.092Z,44.37
2023-04-14T20:00:02.264Z,44.19
2023-04-14T20:02:30.595Z,43.99
2023-04-14T20:04:59.347Z,43.95
2023-04-14T20:07:27.655Z,44.10
2023-04-14T20:09:57.234Z,43.54
2023-04-14T20:12:25.153Z,43.77
2023-04-14T20:14:53.112Z,43.20
2023-04-14T20:17:22.150Z,43.57
2023-04-14T20:19:50.623Z,43.37
2023-04-14T20:22:18.602Z,43.86
2023-04-14T20:24:47.597Z,43.75
2023-04-14T20:27:19.858Z,43.94
2023-04-14T20:29:48.400Z,44.00
2023-04-14T20:32:16.883Z,44.58
2023-04-14T20:34:44.823Z,44.49
2023-04-14T20:37:13.617Z,44.41
2023-04-14T20:39:41.507Z,44.72
2023-04-14T20:42:09.513Z,44.29
2023-04-14T20:44:38.989Z,44.63
2023-04-14T20:47:06.881Z,44.35
2023-04-14T20:49:35.003Z,44.21
2023-04-14T20:52:04.834Z,44.13
2023-04-14T20:54:32.927Z,43.90
2023-04-14T20:57:03.618Z,43.95
2023-04-14T20:59:31.636Z,43.92
2023-04-14T21:02:01.674Z,43.74
2023-04-14T21:04:30.033Z,43.97
2023-04-14T21:06:58.572Z,44.18
2023-04-14T21:09:28.190Z,44.41
2023-04-14T21:12:14.559Z,44.40
2023-04-14T21:15:43.995Z,44.61
2023-04-14T21:17:34.367Z,44.58
2023-04-14T21:20:02.329Z,44.31
2023-04-14T21:22:30.540Z,44.06
2023-04-14T21:24:58.546Z,44.02
2023-04-14T21:27:28.310Z,43.90
2023-04-14T21:29:56.608Z,44.10
2023-04-14T21:32:24.716Z,44.11
2023-04-14T21:34:54.105Z,44.54
2023-04-14T21:37:22.318Z,45.26
2023-04-14T21:39:50.417Z,46.63
2023-04-14T21:42:18.611Z,47.84
2023-04-14T21:44:46.986Z,48.36
2023-04-14T21:47:15.425Z,48.62
2023-04-14T21:49:43.533Z,49.16
2023-04-14T21:52:13.260Z,49.15
2023-04-14T21:54:43.782Z,49.34
2023-04-14T21:57:11.792Z,49.80
2023-04-14T21:59:39.767Z,49.67
2023-04-14T22:02:08.123Z,50.03
2023-04-14T22:04:37.372Z,50.11
2023-04-14T22:07:06.477Z,50.27
2023-04-14T22:09:36.582Z,50.45
2023-04-14T22:12:05.076Z,50.38
2023-04-14T22:14:33.001Z,50.64
2023-04-14T22:17:01.151Z,50.79
2023-04-14T22:19:30.082Z,50.69
2023-04-14T22:21:57.978Z,50.69
2023-04-14T22:24:25.946Z,51.10
2023-04-14T22:26:55.492Z,50.70
2023-04-14T22:29:23.538Z,50.81
2023-04-14T22:31:51.481Z,50.93
2023-04-14T22:34:19.367Z,51.02
2023-04-14T22:36:47.309Z,51.00
2023-04-14T22:39:15.178Z,51.17
2023-04-14T22:41:45.396Z,51.30
2023-04-14T22:44:14.679Z,50.99
2023-04-14T22:46:42.742Z,51.12
2023-04-14T22:49:10.815Z,51.14
2023-04-14T22:51:39.248Z,51.23
2023-04-14T22:54:07.472Z,51.60
2023-04-14T22:56:36.394Z,51.84
2023-04-14T22:59:05.506Z,51.50
2023-04-14T23:01:35.312Z,51.76
2023-04-14T23:04:03.414Z,51.47
2023-04-14T23:06:31.708Z,51.65
2023-04-14T23:08:59.836Z,51.52
2023-04-14T23:11:28.216Z,51.55
2023-04-14T23:13:56.736Z,51.41
2023-04-14T23:16:24.871Z,51.53
2023-04-14T23:18:54.274Z,51.30
2023-04-14T23:21:22.958Z,51.30
2023-04-14T23:23:51.308Z,51.29
2023-04-14T23:26:20.303Z,51.12
2023-04-14T23:28:48.314Z,51.02
2023-04-14T23:31:17.478Z,51.03
2023-04-14T23:33:48.656Z,50.75
2023-04-14T23:36:18.800Z,50.86
2023-04-14T23:38:47.008Z,50.66
2023-04-14T23:41:15.237Z,50.68
2023-04-14T23:43:43.260Z,50.65
2023-04-14T23:46:11.715Z,51.00
2023-04-14T23:48:40.376Z,51.01
2023-04-14T23:51:17.377Z,51.16
2023-04-14T23:53:48.359Z,51.07
2023-04-14T23:56:16.890Z,51.02
2023-04-14T23:58:45.146Z,50.90
